createdAt,value
2022-09-17T00:01:43.397Z,26.33
2022-09-17T00:04:12.018Z,25.92
2022-09-17T00:06:40.080Z,26.05
2022-09-17T00:09:09.264Z,28.05
2022-09-17T00:11:41.066Z,26.33
2022-09-17T00:14:13.821Z,23.45
2022-09-17T00:16:46.877Z,29.52
2022-09-17T00:19:23.785Z,33.67
2022-09-17T00:21:52.622Z,28.35
2022-09-17T00:24:21.637Z,24.97
2022-09-17T00:26:50.894Z,26.58
2022-09-17T00:29:18.923Z,23.20
2022-09-17T00:31:47.895Z,23.15
2022-09-17T00:34:15.852Z,28.92
2022-09-17T00:36:43.770Z,24.10
2022-09-17T00:39:13.313Z,24.67
2022-09-17T00:41:41.423Z,28.08
2022-09-17T00:44:50.812Z,34.65
2022-09-17T00:47:27.551Z,22.85
2022-09-17T00:50:20.962Z,33.22
2022-09-17T00:52:59.848Z,32.60
2022-09-17T00:55:36.075Z,29.87
2022-09-17T00:58:06.805Z,35.15
2022-09-17T01:00:35.261Z,39.22
2022-09-17T01:03:04.218Z,38.75
2022-09-17T01:06:01.820Z,30.85
2022-09-17T01:09:06.852Z,37.33
2022-09-17T01:12:02.272Z,38.05
2022-09-17T01:15:13.097Z,34.83
2022-09-17T01:17:58.744Z,35.08
2022-09-17T01:20:41.834Z,36.22
2022-09-17T01:23:31.382Z,33.28
2022-09-17T01:26:03.755Z,62.55
2022-09-17T01:28:46.371Z,50.97
2022-09-17T01:31:42.216Z,34.90
2022-09-17T01:34:21.366Z,31.48
2022-09-17T01:37:05.038Z,28.35
2022-09-17T01:40:01.685Z,32.83
2022-09-17T01:42:36.909Z,28.98
2022-09-17T01:45:20.664Z,28.95
2022-09-17T01:47:59.698Z,33.45
2022-09-17T01:50:34.209Z,28.80
2022-09-17T01:53:04.901Z,31.02
2022-09-17T01:55:36.983Z,29.15
2022-09-17T01:58:28.509Z,30.38
2022-09-17T02:01:03.495Z,31.25
2022-09-17T02:03:31.528Z,29.95
2022-09-17T02:06:28.848Z,31.50
2022-09-17T02:09:22.980Z,30.52
2022-09-17T02:11:59.842Z,27.27
2022-09-17T02:14:46.971Z,30.77
2022-09-17T02:17:35.835Z,29.27
2022-09-17T02:20:04.761Z,29.87
2022-09-17T02:23:03.835Z,31.77
2022-09-17T02:25:47.969Z,30.27
2022-09-17T02:28:28.026Z,27.58
2022-09-17T02:30:55.957Z,33.55
2022-09-17T02:33:25.463Z,28.83
2022-09-17T02:35:53.573Z,29.13
2022-09-17T02:38:30.563Z,29.17
2022-09-17T02:41:37.790Z,37.50
2022-09-17T02:44:22.713Z,34.85
2022-09-17T02:47:25.797Z,41.30
2022-09-17T02:50:11.833Z,40.40
2022-09-17T02:53:01.175Z,33.92
2022-09-17T02:55:43.004Z,37.15
2022-09-17T02:58:35.796Z,27.50
2022-09-17T03:01:15.955Z,30.30
2022-09-17T03:03:46.925Z,29.55
2022-09-17T03:06:15.229Z,30.10
2022-09-17T03:08:43.627Z,24.15
2022-09-17T03:11:16.104Z,24.00
2022-09-17T03:13:44.092Z,24.13
2022-09-17T03:16:12.144Z,24.50
2022-09-17T03:18:42.950Z,25.02
2022-09-17T03:21:13.353Z,31.20
2022-09-17T03:23:41.289Z,29.90
2022-09-17T03:26:10.407Z,25.25
2022-09-17T03:28:38.351Z,26.92
2022-09-17T03:31:06.641Z,26.52
2022-09-17T03:33:34.748Z,28.73
2022-09-17T03:36:02.888Z,28.40
2022-09-17T03:38:30.888Z,23.08
2022-09-17T03:41:09.168Z,22.58
2022-09-17T03:43:37.136Z,20.52
2022-09-17T03:46:05.143Z,18.05
2022-09-17T03:48:36.108Z,21.70
2022-09-17T03:51:04.884Z,23.70
2022-09-17T03:53:34.070Z,20.77
2022-09-17T03:56:04.818Z,11.60
2022-09-17T03:58:33.625Z,20.98
2022-09-17T04:01:01.753Z,15.68
2022-09-17T04:03:31.529Z,17.15
2022-09-17T04:06:00.685Z,20.45
2022-09-17T04:08:28.726Z,21.90
2022-09-17T04:10:56.921Z,14.23
2022-09-17T04:13:25.193Z,14.73
2022-09-17T04:15:53.063Z,11.48
2022-09-17T04:18:21.978Z,11.60
2022-09-17T04:20:49.966Z,8.63
2022-09-17T04:23:18.183Z,10.68
2022-09-17T04:25:46.697Z,9.50
2022-09-17T04:28:14.623Z,9.50
2022-09-17T04:30:43.856Z,11.77
2022-09-17T04:33:12.051Z,10.80
2022-09-17T04:35:40.020Z,10.82
2022-09-17T04:38:07.927Z,9.63
2022-09-17T04:40:38.006Z,9.20
2022-09-17T04:43:06.724Z,8.32
2022-09-17T04:45:34.603Z,10.10
2022-09-17T04:48:03.858Z,9.77
2022-09-17T04:50:32.705Z,9.70
2022-09-17T04:53:00.641Z,9.20
2022-09-17T04:55:30.881Z,9.38
2022-09-17T04:57:58.931Z,10.27
2022-09-17T05:00:27.000Z,6.15
2022-09-17T05:02:58.942Z,5.03
2022-09-17T05:05:26.811Z,12.57
2022-09-17T05:10:41.311Z,12.35
2022-09-17T05:13:09.232Z,12.25
2022-09-17T05:15:37.144Z,28.88
2022-09-17T05:18:05.199Z,10.20
2022-09-17T05:20:33.153Z,8.30
2022-09-17T05:23:01.054Z,5.75
2022-09-17T05:25:29.153Z,10.80
2022-09-17T05:27:57.133Z,10.40
2022-09-17T05:30:25.111Z,12.30
2022-09-17T05:33:03.938Z,5.40
2022-09-17T05:35:32.651Z,10.32
2022-09-17T05:38:02.404Z,15.05
2022-09-17T05:40:31.371Z,15.10
2022-09-17T05:43:04.784Z,14.90
2022-09-17T05:45:35.619Z,15.13
2022-09-17T05:48:04.852Z,6.43
2022-09-17T05:50:33.657Z,18.33
2022-09-17T05:53:08.427Z,7.78
2022-09-17T05:55:36.386Z,4.53
2022-09-17T05:58:19.355Z,2.38
2022-09-17T06:00:49.630Z,2.83
2022-09-17T06:03:20.071Z,3.60
2022-09-17T06:05:56.554Z,3.00
2022-09-17T06:08:30.281Z,3.22
2022-09-17T06:11:04.350Z,101.88
2022-09-17T06:13:32.587Z,6.60
2022-09-17T06:16:01.363Z,48.53
2022-09-17T06:18:31.364Z,15.63
2022-09-17T06:23:37.857Z,6.95
2022-09-17T06:26:07.220Z,7.45
2022-09-17T06:28:41.417Z,3.03
2022-09-17T06:31:12.386Z,2.97
2022-09-17T06:33:40.483Z,3.55
2022-09-17T06:36:14.711Z,4.47
2022-09-17T06:38:43.229Z,4.53
2022-09-17T06:41:11.160Z,6.00
2022-09-17T06:43:39.257Z,3.72
2022-09-17T06:46:09.704Z,27.10
2022-09-17T06:48:38.859Z,40.15
2022-09-17T06:51:11.053Z,15.17
2022-09-17T06:53:40.154Z,9.60
2022-09-17T06:56:09.701Z,5.80
2022-09-17T06:58:38.858Z,4.53
2022-09-17T07:01:07.323Z,8.20
2022-09-17T07:03:35.970Z,3.05
2022-09-17T07:06:04.308Z,4.88
2022-09-17T07:08:35.099Z,4.45
2022-09-17T07:11:04.063Z,4.22
2022-09-17T07:13:33.023Z,3.05
2022-09-17T07:16:02.974Z,4.13
2022-09-17T07:21:06.888Z,5.20
2022-09-17T07:23:36.805Z,4.25
2022-09-17T07:28:34.899Z,6.78
2022-09-17T07:31:06.245Z,4.80
2022-09-17T07:33:36.009Z,9.88
2022-09-17T07:36:07.995Z,60.20
2022-09-17T07:38:36.559Z,28.92
2022-09-17T07:41:14.019Z,6.30
2022-09-17T07:43:44.302Z,42.13
2022-09-17T07:46:18.146Z,6.43
2022-09-17T07:48:47.540Z,2.80
2022-09-17T07:51:20.360Z,4.45
2022-09-17T07:53:51.115Z,4.15
2022-09-17T07:56:19.243Z,2.78
2022-09-17T07:58:47.277Z,3.30
2022-09-17T08:01:17.363Z,4.85
2022-09-17T08:03:53.438Z,7.60
2022-09-17T08:06:26.826Z,5.90
2022-09-17T08:08:59.203Z,8.80
2022-09-17T08:11:54.570Z,4.93
2022-09-17T08:14:17.808Z,7.50
2022-09-17T08:17:04.093Z,4.80
2022-09-17T08:19:33.660Z,3.78
2022-09-17T08:22:01.691Z,3.78
2022-09-17T08:24:30.179Z,4.63
2022-09-17T08:26:58.418Z,4.45
2022-09-17T08:29:26.405Z,4.90
2022-09-17T08:31:54.287Z,3.75
2022-09-17T08:34:22.552Z,4.78
2022-09-17T08:36:50.509Z,12.13
2022-09-17T08:39:18.805Z,6.22
2022-09-17T08:42:11.588Z,6.78
2022-09-17T08:44:47.685Z,4.60
2022-09-17T08:47:40.321Z,15.18
2022-09-17T08:50:18.642Z,17.13
2022-09-17T08:53:15.083Z,8.85
2022-09-17T08:56:19.945Z,8.52
2022-09-17T08:59:01.777Z,11.27
2022-09-17T09:02:00.215Z,11.85
2022-09-17T09:04:32.301Z,10.38
2022-09-17T09:07:14.871Z,13.90
2022-09-17T09:09:53.968Z,13.90
2022-09-17T09:12:31.738Z,12.98
2022-09-17T09:15:03.923Z,14.25
2022-09-17T09:17:44.633Z,10.60
2022-09-17T09:20:23.026Z,10.60
2022-09-17T09:22:53.501Z,23.45
2022-09-17T09:25:32.110Z,15.73
2022-09-17T09:28:12.815Z,11.63
2022-09-17T09:31:13.988Z,11.18
2022-09-17T09:33:47.737Z,16.17
2022-09-17T09:36:24.013Z,12.48
2022-09-17T09:39:10.692Z,8.60
2022-09-17T09:41:45.691Z,9.68
2022-09-17T09:44:16.201Z,52.92
2022-09-17T09:47:13.073Z,73.10
2022-09-17T09:50:19.325Z,50.90
2022-09-17T09:53:19.127Z,36.72
2022-09-17T09:56:12.263Z,17.13
2022-09-17T09:58:44.022Z,33.88
2022-09-17T10:01:21.066Z,9.63
2022-09-17T10:03:53.475Z,9.32
2022-09-17T10:06:22.200Z,8.57
2022-09-17T10:08:56.038Z,34.08
2022-09-17T10:11:27.472Z,42.03
2022-09-17T10:14:26.121Z,39.97
2022-09-17T10:17:25.948Z,72.03
2022-09-17T10:20:11.401Z,53.65
2022-09-17T10:22:43.025Z,28.88
2022-09-17T10:25:33.243Z,43.85
2022-09-17T10:28:06.233Z,44.33
2022-09-17T10:30:35.945Z,28.23
2022-09-17T10:33:25.266Z,26.27
2022-09-17T10:36:07.307Z,30.98
2022-09-17T10:38:43.882Z,18.58
2022-09-17T10:41:22.708Z,22.20
2022-09-17T10:43:51.454Z,13.30
2022-09-17T10:46:28.380Z,4.95
2022-09-17T10:49:13.289Z,14.38
2022-09-17T10:51:42.312Z,11.98
2022-09-17T10:54:38.004Z,16.60
2022-09-17T10:57:10.030Z,265.92
2022-09-17T10:59:52.955Z,80.90
2022-09-17T11:02:47.032Z,145.77
2022-09-17T11:05:20.540Z,22.58
2022-09-17T11:08:23.272Z,12.43
2022-09-17T11:11:11.699Z,33.38
2022-09-17T11:14:06.045Z,14.38
2022-09-17T11:17:04.710Z,10.32
2022-09-17T11:19:51.178Z,15.18
2022-09-17T11:22:31.654Z,19.90
2022-09-17T11:25:09.781Z,75.13
2022-09-17T11:27:47.053Z,55.87
2022-09-17T11:30:24.886Z,34.17
2022-09-17T11:33:31.900Z,34.58
2022-09-17T11:36:10.892Z,77.80
2022-09-17T11:38:49.323Z,62.08
2022-09-17T11:41:42.899Z,58.10
2022-09-17T11:44:44.321Z,37.95
2022-09-17T11:47:47.445Z,15.25
2022-09-17T11:50:47.713Z,13.98
2022-09-17T11:53:52.684Z,11.60
2022-09-17T11:56:49.989Z,12.35
2022-09-17T11:59:40.671Z,38.00
2022-09-17T12:02:26.854Z,13.18
2022-09-17T12:05:26.759Z,13.75
2022-09-17T12:08:08.499Z,16.70
2022-09-17T12:10:46.446Z,31.95
2022-09-17T12:13:23.748Z,38.72
2022-09-17T12:16:18.870Z,38.60
2022-09-17T12:18:56.588Z,61.50
2022-09-17T12:21:31.326Z,19.42
2022-09-17T12:24:29.335Z,67.80
2022-09-17T12:27:35.838Z,63.40
2022-09-17T12:30:10.631Z,49.15
2022-09-17T12:33:08.572Z,45.63
2022-09-17T12:36:13.979Z,37.60
2022-09-17T12:39:04.351Z,29.00
2022-09-17T12:41:55.915Z,30.30
2022-09-17T12:44:26.936Z,34.40
2022-09-17T12:47:16.558Z,34.42
2022-09-17T12:50:02.589Z,36.65
2022-09-17T12:52:37.432Z,37.15
2022-09-17T12:55:25.628Z,33.17
2022-09-17T12:58:02.210Z,29.33
2022-09-17T13:00:34.249Z,31.15
2022-09-17T13:03:53.421Z,31.65
2022-09-17T13:06:38.704Z,39.15
2022-09-17T13:09:13.970Z,30.25
2022-09-17T13:11:58.292Z,24.08
2022-09-17T13:14:53.278Z,26.48
2022-09-17T13:18:12.331Z,25.27
2022-09-17T13:20:51.329Z,31.45
2022-09-17T13:23:34.888Z,33.30
2022-09-17T13:26:07.688Z,107.97
2022-09-17T13:28:47.455Z,77.80
2022-09-17T13:31:45.205Z,100.00
2022-09-17T13:34:19.692Z,89.85
2022-09-17T13:36:53.992Z,70.82
2022-09-17T13:39:41.105Z,57.97
2022-09-17T13:42:17.255Z,73.75
2022-09-17T13:44:54.543Z,102.47
2022-09-17T13:47:30.290Z,90.47
2022-09-17T13:50:43.905Z,114.07
2022-09-17T13:53:15.205Z,166.07
2022-09-17T13:55:44.976Z,112.80
2022-09-17T13:58:22.753Z,90.82
2022-09-17T14:00:52.703Z,90.35
2022-09-17T14:03:39.347Z,100.35
2022-09-17T14:06:08.653Z,94.63
2022-09-17T14:08:46.114Z,104.93
2022-09-17T14:11:27.388Z,103.47
2022-09-17T14:14:05.004Z,113.03
2022-09-17T14:16:39.384Z,128.05
2022-09-17T14:19:16.782Z,129.60
2022-09-17T14:22:00.335Z,133.55
2022-09-17T14:24:50.940Z,146.50
2022-09-17T14:27:42.074Z,154.85
2022-09-17T14:30:32.046Z,152.55
2022-09-17T14:33:23.577Z,153.60
2022-09-17T14:35:59.005Z,147.50
2022-09-17T14:38:54.103Z,139.68
2022-09-17T14:41:33.991Z,131.13
2022-09-17T14:46:49.813Z,121.07
2022-09-17T14:49:28.223Z,99.65
2022-09-17T14:52:02.648Z,92.85
2022-09-17T14:54:36.248Z,102.78
2022-09-17T14:57:22.954Z,101.90
2022-09-17T14:59:55.361Z,157.98
2022-09-17T15:02:28.880Z,121.18
2022-09-17T15:04:57.901Z,185.40
2022-09-17T15:07:27.133Z,140.50
2022-09-17T15:09:59.427Z,104.35
2022-09-17T15:12:31.067Z,151.85
2022-09-17T15:14:59.509Z,149.57
2022-09-17T15:17:27.716Z,143.60
2022-09-17T15:19:59.371Z,149.18
2022-09-17T15:22:34.466Z,137.80
2022-09-17T15:25:12.212Z,126.18
2022-09-17T15:27:46.340Z,137.52
2022-09-17T15:30:21.822Z,158.27
2022-09-17T15:32:58.932Z,142.88
2022-09-17T15:35:34.673Z,150.57
2022-09-17T15:38:22.701Z,193.27
2022-09-17T15:40:52.612Z,184.82
2022-09-17T15:43:35.054Z,179.15
2022-09-17T15:46:42.342Z,179.82
2022-09-17T15:49:38.928Z,179.80
2022-09-17T15:52:44.857Z,178.77
2022-09-17T15:56:14.070Z,171.00
2022-09-17T15:58:42.289Z,175.82
2022-09-17T16:01:19.275Z,186.82
2022-09-17T16:03:48.938Z,172.45
2022-09-17T16:06:19.850Z,145.95
2022-09-17T16:08:50.982Z,145.70
2022-09-17T16:11:21.525Z,158.77
2022-09-17T16:13:57.474Z,175.75
2022-09-17T16:16:31.972Z,162.65
2022-09-17T16:19:00.078Z,175.77
2022-09-17T16:21:28.440Z,161.07
2022-09-17T16:23:58.945Z,151.13
2022-09-17T16:26:31.726Z,164.75
2022-09-17T16:29:06.083Z,162.90
2022-09-17T16:31:35.077Z,153.18
2022-09-17T16:34:03.089Z,172.95
2022-09-17T16:36:34.132Z,154.45
2022-09-17T16:39:02.034Z,162.98
2022-09-17T16:41:48.375Z,150.80
2022-09-17T16:44:16.301Z,151.93
2022-09-17T16:46:44.168Z,139.45
2022-09-17T16:49:13.056Z,133.93
2022-09-17T16:51:41.024Z,151.23
2022-09-17T16:54:09.029Z,143.80
2022-09-17T16:56:37.240Z,162.57
2022-09-17T16:59:05.934Z,141.38
2022-09-17T17:01:33.914Z,159.50
2022-09-17T17:04:02.925Z,164.30
2022-09-17T17:06:32.913Z,191.63
2022-09-17T17:09:01.722Z,231.23
2022-09-17T17:11:30.045Z,159.80
2022-09-17T17:13:58.125Z,163.70
2022-09-17T17:16:26.477Z,129.23
2022-09-17T17:18:56.044Z,172.52
2022-09-17T17:21:24.077Z,163.82
2022-09-17T17:23:51.961Z,158.30
2022-09-17T17:26:21.635Z,170.50
2022-09-17T17:28:49.755Z,155.68
2022-09-17T17:31:18.012Z,198.30
2022-09-17T17:33:46.978Z,145.25
2022-09-17T17:36:14.948Z,95.60
2022-09-17T17:38:43.875Z,101.63
2022-09-17T17:41:14.894Z,132.40
2022-09-17T17:43:43.001Z,117.28
2022-09-17T17:46:12.968Z,127.80
2022-09-17T17:48:41.958Z,114.93
2022-09-17T17:51:11.078Z,176.05
2022-09-17T17:53:43.394Z,261.80
2022-09-17T17:56:13.391Z,160.13
2022-09-17T17:58:41.961Z,197.65
2022-09-17T18:01:15.933Z,193.20
2022-09-17T18:03:44.334Z,189.93
2022-09-17T18:06:12.604Z,179.45
2022-09-17T18:08:42.236Z,186.85
2022-09-17T18:11:12.377Z,171.18
2022-09-17T18:13:42.277Z,167.20
2022-09-17T18:16:20.020Z,173.15
2022-09-17T18:18:48.982Z,174.30
2022-09-17T18:21:22.895Z,154.50
2022-09-17T18:23:51.956Z,154.73
2022-09-17T18:26:28.589Z,152.82
2022-09-17T18:28:57.230Z,171.23
2022-09-17T18:31:31.908Z,171.57
2022-09-17T18:34:02.994Z,162.82
2022-09-17T18:36:34.073Z,170.40
2022-09-17T18:39:33.177Z,156.18
2022-09-17T18:41:54.394Z,151.63
2022-09-17T18:44:23.047Z,133.52
2022-09-17T18:46:51.963Z,130.15
2022-09-17T18:49:20.171Z,123.10
2022-09-17T18:51:48.258Z,116.03
2022-09-17T18:54:16.185Z,118.45
2022-09-17T18:56:44.182Z,130.55
2022-09-17T18:59:12.346Z,120.30
2022-09-17T19:01:40.336Z,125.55
2022-09-17T19:04:09.153Z,117.90
2022-09-17T19:06:37.110Z,125.72
2022-09-17T19:09:06.362Z,128.30
2022-09-17T19:11:37.106Z,133.85
2022-09-17T19:14:05.448Z,127.60
2022-09-17T19:16:33.442Z,131.10
2022-09-17T19:19:01.743Z,140.35
2022-09-17T19:21:29.893Z,222.63
2022-09-17T19:23:57.940Z,176.70
2022-09-17T19:26:29.952Z,145.75
2022-09-17T19:29:01.112Z,114.97
2022-09-17T19:31:29.513Z,97.75
2022-09-17T19:33:59.491Z,99.53
2022-09-17T19:36:27.538Z,101.90
2022-09-17T19:38:55.615Z,97.90
2022-09-17T19:41:25.734Z,89.50
2022-09-17T19:43:55.565Z,96.88
2022-09-17T19:48:58.111Z,108.05
2022-09-17T19:51:29.536Z,106.38
2022-09-17T19:53:57.814Z,101.57
2022-09-17T19:56:29.974Z,100.93
2022-09-17T19:58:57.910Z,117.57
2022-09-17T20:01:25.912Z,109.78
2022-09-17T20:03:56.739Z,99.82
2022-09-17T20:06:24.598Z,96.05
2022-09-17T20:08:55.025Z,88.82
2022-09-17T20:11:25.369Z,83.70
2022-09-17T20:14:08.122Z,88.22
2022-09-17T20:16:39.203Z,93.32
2022-09-17T20:19:08.554Z,102.05
2022-09-17T20:21:36.656Z,114.47
2022-09-17T20:24:07.513Z,121.13
2022-09-17T20:26:36.195Z,123.13
2022-09-17T20:29:04.619Z,122.57
2022-09-17T20:31:51.813Z,112.45
2022-09-17T20:34:19.745Z,105.32
2022-09-17T20:36:47.690Z,96.88
2022-09-17T20:39:22.866Z,89.13
2022-09-17T20:41:51.391Z,97.90
2022-09-17T20:44:19.473Z,82.50
2022-09-17T20:46:49.363Z,77.15
2022-09-17T20:49:17.303Z,77.00
2022-09-17T20:51:45.182Z,73.53
2022-09-17T20:54:13.476Z,78.95
2022-09-17T20:56:41.625Z,83.18
2022-09-17T20:59:21.028Z,72.28
2022-09-17T21:01:50.444Z,79.80
2022-09-17T21:04:20.597Z,66.40
2022-09-17T21:06:53.511Z,77.90
2022-09-17T21:09:21.636Z,91.85
2022-09-17T21:11:50.002Z,78.88
2022-09-17T21:14:19.058Z,78.20
2022-09-17T21:16:47.369Z,72.57
2022-09-17T21:19:16.884Z,74.45
2022-09-17T21:21:45.466Z,66.60
2022-09-17T21:24:13.452Z,76.82
2022-09-17T21:26:41.557Z,72.05
2022-09-17T21:29:09.752Z,66.28
2022-09-17T21:31:38.848Z,61.15
2022-09-17T21:34:10.545Z,59.45
2022-09-17T21:36:41.007Z,64.85
2022-09-17T21:39:16.305Z,64.80
2022-09-17T21:41:45.379Z,71.95
2022-09-17T21:44:14.851Z,62.45
2022-09-17T21:46:43.691Z,68.20
2022-09-17T21:49:13.743Z,61.03
2022-09-17T21:51:43.343Z,82.90
2022-09-17T21:54:14.211Z,86.53
2022-09-17T21:56:42.577Z,85.45
2022-09-17T21:59:14.785Z,76.10
2022-09-17T22:01:47.668Z,100.65
2022-09-17T22:04:19.280Z,117.88
2022-09-17T22:06:48.655Z,90.07
2022-09-17T22:09:20.529Z,94.68
2022-09-17T22:11:49.377Z,84.90
2022-09-17T22:14:23.090Z,70.90
2022-09-17T22:16:54.121Z,67.13
2022-09-17T22:19:27.985Z,61.35
2022-09-17T22:21:56.848Z,59.65
2022-09-17T22:24:25.934Z,56.67
2022-09-17T22:26:57.807Z,62.53
2022-09-17T22:29:28.883Z,51.67
2022-09-17T22:31:58.049Z,59.65
2022-09-17T22:34:27.221Z,51.95
2022-09-17T22:36:55.103Z,54.28
2022-09-17T22:39:23.436Z,60.28
2022-09-17T22:41:51.560Z,59.33
2022-09-17T22:44:21.216Z,61.65
2022-09-17T22:46:51.819Z,67.22
2022-09-17T22:49:21.052Z,72.50
2022-09-17T22:51:49.100Z,140.88
2022-09-17T22:54:18.690Z,108.68
2022-09-17T22:56:48.267Z,105.75
2022-09-17T22:59:16.878Z,106.65
2022-09-17T23:01:45.011Z,76.43
2022-09-17T23:04:12.936Z,87.60
2022-09-17T23:06:44.894Z,78.18
2022-09-17T23:09:15.559Z,70.43
2022-09-17T23:11:43.560Z,61.00
2022-09-17T23:14:14.156Z,62.55
2022-09-17T23:16:48.163Z,58.10
2022-09-17T23:19:17.822Z,59.95
2022-09-17T23:21:46.355Z,55.08
2022-09-17T23:24:21.772Z,55.92
2022-09-17T23:26:50.291Z,52.92
2022-09-17T23:29:18.512Z,53.65
2022-09-17T23:31:47.456Z,45.85
2022-09-17T23:34:15.450Z,49.15
2022-09-17T23:36:43.422Z,51.28
2022-09-17T23:39:13.255Z,42.60
2022-09-17T23:41:59.975Z,50.33
2022-09-17T23:44:29.138Z,51.45
2022-09-17T23:46:57.024Z,71.15
2022-09-17T23:49:25.032Z,55.53
2022-09-17T23:51:54.006Z,54.85
2022-09-17T23:54:21.999Z,66.05
2022-09-17T23:56:49.880Z,60.88
2022-09-17T23:59:17.928Z,60.25
